sensor_id;sensor_type;location;lat;lon;timestamp;P1;durP1;ratioP1;P2;durP2;ratioP2
2396;SDS011;1209;48.410;9.054;2022-11-24T00:01:25;1.47;;;1.37;;
2396;SDS011;1209;48.410;9.054;2022-11-24T00:03:53;2.00;;;1.80;;
2396;SDS011;1209;48.410;9.054;2022-11-24T00:06:20;6.20;;;2.15;;
2396;SDS011;1209;48.410;9.054;2022-11-24T00:08:46;2.27;;;1.27;;
2396;SDS011;1209;48.410;9.054;2022-11-24T00:11:15;3.90;;;1.70;;
2396;SDS011;1209;48.410;9.054;2022-11-24T00:13:46;2.60;;;1.23;;
2396;SDS011;1209;48.410;9.054;2022-11-24T00:16:12;3.00;;;1.40;;
2396;SDS011;1209;48.410;9.054;2022-11-24T00:18:43;2.97;;;1.30;;
2396;SDS011;1209;48.410;9.054;2022-11-24T00:21:10;1.73;;;1.20;;
2396;SDS011;1209;48.410;9.054;2022-11-24T00:23:35;8.50;;;1.33;;
2396;SDS011;1209;48.410;9.054;2022-11-24T00:26:02;7.83;;;1.93;;
2396;SDS011;1209;48.410;9.054;2022-11-24T00:28:28;4.70;;;1.30;;
2396;SDS011;1209;48.410;9.054;2022-11-24T00:30:54;3.60;;;1.10;;
2396;SDS011;1209;48.410;9.054;2022-11-24T00:33:19;0.73;;;0.73;;
2396;SDS011;1209;48.410;9.054;2022-11-24T00:35:44;1.07;;;1.07;;
2396;SDS011;1209;48.410;9.054;2022-11-24T00:38:09;1.40;;;1.30;;
2396;SDS011;1209;48.410;9.054;2022-11-24T00:40:35;1.67;;;1.00;;
2396;SDS011;1209;48.410;9.054;2022-11-24T00:43:00;7.40;;;1.83;;
2396;SDS011;1209;48.410;9.054;2022-11-24T00:45:25;1.57;;;1.40;;
2396;SDS011;1209;48.410;9.054;2022-11-24T00:47:51;3.07;;;1.00;;
2396;SDS011;1209;48.410;9.054;2022-11-24T00:50:16;1.90;;;1.70;;
2396;SDS011;1209;48.410;9.054;2022-11-24T00:52:41;6.93;;;1.50;;
2396;SDS011;1209;48.410;9.054;2022-11-24T00:55:07;2.40;;;1.40;;
2396;SDS011;1209;48.410;9.054;2022-11-24T00:57:33;1.67;;;1.03;;
2396;SDS011;1209;48.410;9.054;2022-11-24T00:59:59;1.30;;;1.20;;
2396;SDS011;1209;48.410;9.054;2022-11-24T01:02:25;0.87;;;0.87;;
2396;SDS011;1209;48.410;9.054;2022-11-24T01:04:50;10.93;;;1.40;;
2396;SDS011;1209;48.410;9.054;2022-11-24T01:07:15;0.87;;;0.87;;
2396;SDS011;1209;48.410;9.054;2022-11-24T01:09:41;1.70;;;0.87;;
2396;SDS011;1209;48.410;9.054;2022-11-24T01:12:07;2.25;;;1.17;;
2396;SDS011;1209;48.410;9.054;2022-11-24T01:14:32;1.07;;;1.00;;
2396;SDS011;1209;48.410;9.054;2022-11-24T01:16:58;1.03;;;0.93;;
2396;SDS011;1209;48.410;9.054;2022-11-24T01:19:23;2.97;;;1.60;;
2396;SDS011;1209;48.410;9.054;2022-11-24T01:21:55;4.10;;;1.27;;
2396;SDS011;1209;48.410;9.054;2022-11-24T01:24:20;1.20;;;1.10;;
2396;SDS011;1209;48.410;9.054;2022-11-24T01:26:46;0.90;;;0.90;;
2396;SDS011;1209;48.410;9.054;2022-11-24T01:29:11;0.80;;;0.80;;
2396;SDS011;1209;48.410;9.054;2022-11-24T01:31:37;2.00;;;1.00;;
2396;SDS011;1209;48.410;9.054;2022-11-24T01:34:02;1.00;;;1.00;;
2396;SDS011;1209;48.410;9.054;2022-11-24T01:36:28;5.90;;;1.53;;
2396;SDS011;1209;48.410;9.054;2022-11-24T01:38:53;1.67;;;1.57;;
2396;SDS011;1209;48.410;9.054;2022-11-24T01:41:19;3.07;;;1.67;;
2396;SDS011;1209;48.410;9.054;2022-11-24T01:43:47;1.85;;;1.10;;
2396;SDS011;1209;48.410;9.054;2022-11-24T01:46:15;0.80;;;0.80;;
2396;SDS011;1209;48.410;9.054;2022-11-24T01:51:38;1.43;;;1.30;;
2396;SDS011;1209;48.410;9.054;2022-11-24T01:54:12;1.23;;;1.13;;
2396;SDS011;1209;48.410;9.054;2022-11-24T01:56:41;1.17;;;1.17;;
2396;SDS011;1209;48.410;9.054;2022-11-24T01:59:10;2.38;;;1.30;;
2396;SDS011;1209;48.410;9.054;2022-11-24T02:01:39;0.83;;;0.77;;
2396;SDS011;1209;48.410;9.054;2022-11-24T02:04:05;1.27;;;1.20;;
2396;SDS011;1209;48.410;9.054;2022-11-24T02:06:36;1.47;;;0.90;;
2396;SDS011;1209;48.410;9.054;2022-11-24T02:09:15;1.20;;;1.20;;
2396;SDS011;1209;48.410;9.054;2022-11-24T02:11:47;1.50;;;0.97;;
2396;SDS011;1209;48.410;9.054;2022-11-24T02:14:12;2.97;;;1.20;;
2396;SDS011;1209;48.410;9.054;2022-11-24T02:16:42;6.07;;;1.20;;
2396;SDS011;1209;48.410;9.054;2022-11-24T02:19:14;3.72;;;1.10;;
2396;SDS011;1209;48.410;9.054;2022-11-24T02:22:06;0.70;;;0.70;;
2396;SDS011;1209;48.410;9.054;2022-11-24T02:24:48;0.80;;;0.80;;
2396;SDS011;1209;48.410;9.054;2022-11-24T02:27:16;1.13;;;1.08;;
2396;SDS011;1209;48.410;9.054;2022-11-24T02:29:43;1.20;;;1.10;;
2396;SDS011;1209;48.410;9.054;2022-11-24T02:32:08;1.33;;;1.23;;
2396;SDS011;1209;48.410;9.054;2022-11-24T02:34:35;2.33;;;1.00;;
2396;SDS011;1209;48.410;9.054;2022-11-24T02:37:00;3.50;;;1.50;;
2396;SDS011;1209;48.410;9.054;2022-11-24T02:39:26;4.00;;;1.00;;
2396;SDS011;1209;48.410;9.054;2022-11-24T02:41:52;2.60;;;1.37;;
2396;SDS011;1209;48.410;9.054;2022-11-24T02:44:21;3.37;;;1.67;;
2396;SDS011;1209;48.410;9.054;2022-11-24T02:46:49;2.70;;;1.70;;
2396;SDS011;1209;48.410;9.054;2022-11-24T02:49:14;1.70;;;1.37;;
2396;SDS011;1209;48.410;9.054;2022-11-24T02:51:40;5.90;;;1.20;;
2396;SDS011;1209;48.410;9.054;2022-11-24T02:54:05;3.90;;;1.27;;
2396;SDS011;1209;48.410;9.054;2022-11-24T02:56:30;0.90;;;0.90;;
2396;SDS011;1209;48.410;9.054;2022-11-24T02:58:56;2.83;;;1.20;;
2396;SDS011;1209;48.410;9.054;2022-11-24T03:01:21;3.53;;;1.23;;
2396;SDS011;1209;48.410;9.054;2022-11-24T03:03:47;3.70;;;1.67;;
2396;SDS011;1209;48.410;9.054;2022-11-24T03:06:12;4.87;;;1.80;;
2396;SDS011;1209;48.410;9.054;2022-11-24T03:08:37;1.53;;;0.90;;
2396;SDS011;1209;48.410;9.054;2022-11-24T03:11:03;10.63;;;1.37;;
2396;SDS011;1209;48.410;9.054;2022-11-24T03:13:28;4.23;;;1.27;;
2396;SDS011;1209;48.410;9.054;2022-11-24T03:15:54;2.40;;;1.40;;
2396;SDS011;1209;48.410;9.054;2022-11-24T03:18:19;2.30;;;1.20;;
2396;SDS011;1209;48.410;9.054;2022-11-24T03:20:44;7.73;;;1.90;;
2396;SDS011;1209;48.410;9.054;2022-11-24T03:23:10;2.63;;;1.20;;
2396;SDS011;1209;48.410;9.054;2022-11-24T03:25:35;3.20;;;1.70;;
2396;SDS011;1209;48.410;9.054;2022-11-24T03:28:00;2.33;;;1.30;;
2396;SDS011;1209;48.410;9.054;2022-11-24T03:30:26;1.90;;;1.50;;
2396;SDS011;1209;48.410;9.054;2022-11-24T03:32:51;2.20;;;1.37;;
2396;SDS011;1209;48.410;9.054;2022-11-24T03:35:20;3.23;;;1.33;;
2396;SDS011;1209;48.410;9.054;2022-11-24T03:37:46;5.80;;;1.67;;
2396;SDS011;1209;48.410;9.054;2022-11-24T03:40:11;2.77;;;1.30;;
2396;SDS011;1209;48.410;9.054;2022-11-24T03:42:37;1.50;;;1.40;;
2396;SDS011;1209;48.410;9.054;2022-11-24T03:45:03;1.43;;;1.30;;
2396;SDS011;1209;48.410;9.054;2022-11-24T03:47:29;4.73;;;1.07;;
2396;SDS011;1209;48.410;9.054;2022-11-24T03:49:55;7.43;;;1.53;;
2396;SDS011;1209;48.410;9.054;2022-11-24T03:52:20;3.97;;;1.30;;
2396;SDS011;1209;48.410;9.054;2022-11-24T03:54:45;2.60;;;1.17;;
2396;SDS011;1209;48.410;9.054;2022-11-24T03:57:11;1.43;;;1.33;;
2396;SDS011;1209;48.410;9.054;2022-11-24T03:59:37;8.63;;;2.10;;
2396;SDS011;1209;48.410;9.054;2022-11-24T04:02:03;2.67;;;1.13;;
2396;SDS011;1209;48.410;9.054;2022-11-24T04:04:28;4.40;;;1.60;;
2396;SDS011;1209;48.410;9.054;2022-11-24T04:06:53;4.97;;;1.10;;
2396;SDS011;1209;48.410;9.054;2022-11-24T04:09:19;2.20;;;1.23;;
2396;SDS011;1209;48.410;9.054;2022-11-24T04:11:44;3.07;;;1.20;;
2396;SDS011;1209;48.410;9.054;2022-11-24T04:14:28;1.90;;;1.33;;
2396;SDS011;1209;48.410;9.054;2022-11-24T04:16:53;5.73;;;1.63;;
2396;SDS011;1209;48.410;9.054;2022-11-24T04:19:18;4.83;;;1.90;;
2396;SDS011;1209;48.410;9.054;2022-11-24T04:21:44;2.90;;;1.27;;
2396;SDS011;1209;48.410;9.054;2022-11-24T04:24:09;6.03;;;1.53;;
2396;SDS011;1209;48.410;9.054;2022-11-24T04:26:34;1.80;;;1.37;;
2396;SDS011;1209;48.410;9.054;2022-11-24T04:29:00;2.00;;;1.07;;
2396;SDS011;1209;48.410;9.054;2022-11-24T04:31:25;2.77;;;1.00;;
2396;SDS011;1209;48.410;9.054;2022-11-24T04:33:50;3.53;;;1.20;;
2396;SDS011;1209;48.410;9.054;2022-11-24T04:36:16;3.23;;;1.50;;
2396;SDS011;1209;48.410;9.054;2022-11-24T04:38:41;4.83;;;1.10;;
2396;SDS011;1209;48.410;9.054;2022-11-24T04:41:06;2.30;;;1.50;;
2396;SDS011;1209;48.410;9.054;2022-11-24T04:43:32;7.33;;;1.40;;
2396;SDS011;1209;48.410;9.054;2022-11-24T04:45:58;5.13;;;2.50;;
2396;SDS011;1209;48.410;9.054;2022-11-24T04:48:25;2.60;;;1.17;;
2396;SDS011;1209;48.410;9.054;2022-11-24T04:50:50;3.13;;;2.20;;
2396;SDS011;1209;48.410;9.054;2022-11-24T04:53:16;7.10;;;4.10;;
2396;SDS011;1209;48.410;9.054;2022-11-24T04:55:41;3.77;;;1.50;;
2396;SDS011;1209;48.410;9.054;2022-11-24T04:58:09;2.67;;;1.50;;
2396;SDS011;1209;48.410;9.054;2022-11-24T05:00:36;3.20;;;1.70;;
2396;SDS011;1209;48.410;9.054;2022-11-24T05:03:01;4.47;;;1.50;;
2396;SDS011;1209;48.410;9.054;2022-11-24T05:05:27;4.73;;;1.43;;
2396;SDS011;1209;48.410;9.054;2022-11-24T05:07:52;3.80;;;0.97;;
2396;SDS011;1209;48.410;9.054;2022-11-24T05:10:18;5.20;;;1.80;;
2396;SDS011;1209;48.410;9.054;2022-11-24T05:13:06;4.40;;;1.60;;
2396;SDS011;1209;48.410;9.054;2022-11-24T05:15:35;12.07;;;2.07;;
2396;SDS011;1209;48.410;9.054;2022-11-24T05:18:05;2.73;;;2.53;;
2396;SDS011;1209;48.410;9.054;2022-11-24T05:20:35;7.63;;;2.30;;
2396;SDS011;1209;48.410;9.054;2022-11-24T05:23:02;8.33;;;2.63;;
2396;SDS011;1209;48.410;9.054;2022-11-24T05:25:29;4.20;;;1.63;;
2396;SDS011;1209;48.410;9.054;2022-11-24T05:27:57;14.13;;;2.10;;
2396;SDS011;1209;48.410;9.054;2022-11-24T05:30:24;10.75;;;2.10;;
2396;SDS011;1209;48.410;9.054;2022-11-24T05:32:49;4.90;;;1.47;;
2396;SDS011;1209;48.410;9.054;2022-11-24T05:35:14;7.03;;;2.60;;
2396;SDS011;1209;48.410;9.054;2022-11-24T05:37:40;4.33;;;1.50;;
2396;SDS011;1209;48.410;9.054;2022-11-24T05:40:06;5.37;;;1.70;;
2396;SDS011;1209;48.410;9.054;2022-11-24T05:42:32;2.63;;;1.40;;
2396;SDS011;1209;48.410;9.054;2022-11-24T05:45:16;9.33;;;1.67;;
2396;SDS011;1209;48.410;9.054;2022-11-24T05:47:43;8.93;;;1.73;;
2396;SDS011;1209;48.410;9.054;2022-11-24T05:50:10;4.87;;;1.80;;
2396;SDS011;1209;48.410;9.054;2022-11-24T05:52:36;4.00;;;2.07;;
2396;SDS011;1209;48.410;9.054;2022-11-24T05:55:03;6.40;;;1.40;;
2396;SDS011;1209;48.410;9.054;2022-11-24T05:57:29;4.87;;;2.10;;
2396;SDS011;1209;48.410;9.054;2022-11-24T05:59:54;3.67;;;1.80;;
2396;SDS011;1209;48.410;9.054;2022-11-24T06:02:20;3.87;;;1.60;;
2396;SDS011;1209;48.410;9.054;2022-11-24T06:04:45;3.33;;;1.87;;
2396;SDS011;1209;48.410;9.054;2022-11-24T06:07:11;12.20;;;1.77;;
2396;SDS011;1209;48.410;9.054;2022-11-24T06:09:40;4.33;;;2.53;;
2396;SDS011;1209;48.410;9.054;2022-11-24T06:12:06;15.95;;;6.35;;
2396;SDS011;1209;48.410;9.054;2022-11-24T06:14:32;8.02;;;1.90;;
2396;SDS011;1209;48.410;9.054;2022-11-24T06:16:58;9.03;;;2.63;;
2396;SDS011;1209;48.410;9.054;2022-11-24T06:19:23;3.63;;;2.30;;
2396;SDS011;1209;48.410;9.054;2022-11-24T06:21:48;9.70;;;2.10;;
2396;SDS011;1209;48.410;9.054;2022-11-24T06:24:14;4.50;;;2.07;;
2396;SDS011;1209;48.410;9.054;2022-11-24T06:26:40;3.93;;;1.77;;
2396;SDS011;1209;48.410;9.054;2022-11-24T06:29:05;6.33;;;2.10;;
2396;SDS011;1209;48.410;9.054;2022-11-24T06:31:31;7.40;;;2.60;;
2396;SDS011;1209;48.410;9.054;2022-11-24T06:33:56;5.50;;;2.50;;
2396;SDS011;1209;48.410;9.054;2022-11-24T06:36:21;9.10;;;1.90;;
2396;SDS011;1209;48.410;9.054;2022-11-24T06:38:47;4.60;;;1.40;;
2396;SDS011;1209;48.410;9.054;2022-11-24T06:41:12;2.83;;;1.70;;
2396;SDS011;1209;48.410;9.054;2022-11-24T06:43:39;3.53;;;1.60;;
2396;SDS011;1209;48.410;9.054;2022-11-24T06:46:05;3.30;;;1.20;;
2396;SDS011;1209;48.410;9.054;2022-11-24T06:48:30;7.03;;;1.70;;
2396;SDS011;1209;48.410;9.054;2022-11-24T06:51:03;6.00;;;2.10;;
2396;SDS011;1209;48.410;9.054;2022-11-24T06:53:30;6.90;;;3.47;;
2396;SDS011;1209;48.410;9.054;2022-11-24T06:56:00;6.93;;;3.00;;
2396;SDS011;1209;48.410;9.054;2022-11-24T06:58:26;2.80;;;2.13;;
2396;SDS011;1209;48.410;9.054;2022-11-24T07:00:51;2.33;;;1.47;;
2396;SDS011;1209;48.410;9.054;2022-11-24T07:03:18;6.70;;;2.30;;
2396;SDS011;1209;48.410;9.054;2022-11-24T07:05:43;7.10;;;2.10;;
2396;SDS011;1209;48.410;9.054;2022-11-24T07:08:09;6.47;;;2.77;;
2396;SDS011;1209;48.410;9.054;2022-11-24T07:10:34;14.63;;;2.53;;
2396;SDS011;1209;48.410;9.054;2022-11-24T07:13:00;7.43;;;2.17;;
2396;SDS011;1209;48.410;9.054;2022-11-24T07:15:27;3.30;;;1.73;;
2396;SDS011;1209;48.410;9.054;2022-11-24T07:17:53;8.33;;;1.77;;
2396;SDS011;1209;48.410;9.054;2022-11-24T07:20:18;9.97;;;1.40;;
2396;SDS011;1209;48.410;9.054;2022-11-24T07:22:44;6.37;;;2.70;;
2396;SDS011;1209;48.410;9.054;2022-11-24T07:25:09;3.40;;;2.10;;
2396;SDS011;1209;48.410;9.054;2022-11-24T07:27:35;3.67;;;2.00;;
2396;SDS011;1209;48.410;9.054;2022-11-24T07:30:00;7.60;;;1.90;;
2396;SDS011;1209;48.410;9.054;2022-11-24T07:32:27;8.00;;;1.60;;
2396;SDS011;1209;48.410;9.054;2022-11-24T07:34:53;2.30;;;1.20;;
2396;SDS011;1209;48.410;9.054;2022-11-24T07:37:18;3.83;;;2.40;;
2396;SDS011;1209;48.410;9.054;2022-11-24T07:39:43;4.40;;;2.00;;
2396;SDS011;1209;48.410;9.054;2022-11-24T07:42:09;10.53;;;1.30;;
2396;SDS011;1209;48.410;9.054;2022-11-24T07:44:35;4.47;;;1.80;;
2396;SDS011;1209;48.410;9.054;2022-11-24T07:47:00;9.93;;;2.73;;
2396;SDS011;1209;48.410;9.054;2022-11-24T07:49:26;1.90;;;1.80;;
2396;SDS011;1209;48.410;9.054;2022-11-24T07:51:51;3.17;;;1.60;;
2396;SDS011;1209;48.410;9.054;2022-11-24T07:54:17;2.30;;;1.50;;
2396;SDS011;1209;48.410;9.054;2022-11-24T07:56:42;1.20;;;1.10;;
2396;SDS011;1209;48.410;9.054;2022-11-24T07:59:07;2.57;;;1.47;;
2396;SDS011;1209;48.410;9.054;2022-11-24T08:01:32;7.40;;;1.10;;
2396;SDS011;1209;48.410;9.054;2022-11-24T08:03:59;1.13;;;1.03;;
2396;SDS011;1209;48.410;9.054;2022-11-24T08:06:26;3.90;;;1.40;;
2396;SDS011;1209;48.410;9.054;2022-11-24T08:08:52;1.30;;;1.20;;
2396;SDS011;1209;48.410;9.054;2022-11-24T08:11:19;4.70;;;1.23;;
2396;SDS011;1209;48.410;9.054;2022-11-24T08:13:44;6.43;;;2.23;;
2396;SDS011;1209;48.410;9.054;2022-11-24T08:16:13;1.73;;;1.27;;
2396;SDS011;1209;48.410;9.054;2022-11-24T08:18:40;5.00;;;1.50;;
2396;SDS011;1209;48.410;9.054;2022-11-24T08:21:06;7.53;;;1.33;;
2396;SDS011;1209;48.410;9.054;2022-11-24T08:23:35;1.50;;;1.10;;
2396;SDS011;1209;48.410;9.054;2022-11-24T08:26:04;9.50;;;1.57;;
2396;SDS011;1209;48.410;9.054;2022-11-24T08:28:32;1.83;;;1.10;;
2396;SDS011;1209;48.410;9.054;2022-11-24T08:31:02;3.43;;;0.90;;
2396;SDS011;1209;48.410;9.054;2022-11-24T08:33:32;1.53;;;1.43;;
2396;SDS011;1209;48.410;9.054;2022-11-24T08:36:04;1.07;;;1.07;;
2396;SDS011;1209;48.410;9.054;2022-11-24T08:38:31;8.23;;;2.33;;
2396;SDS011;1209;48.410;9.054;2022-11-24T08:41:04;5.40;;;2.57;;
2396;SDS011;1209;48.410;9.054;2022-11-24T08:43:31;9.10;;;2.20;;
2396;SDS011;1209;48.410;9.054;2022-11-24T08:46:06;8.70;;;3.27;;
2396;SDS011;1209;48.410;9.054;2022-11-24T08:48:33;8.48;;;2.55;;
2396;SDS011;1209;48.410;9.054;2022-11-24T08:51:04;5.93;;;3.37;;
2396;SDS011;1209;48.410;9.054;2022-11-24T08:53:35;5.77;;;3.30;;
2396;SDS011;1209;48.410;9.054;2022-11-24T08:56:00;7.57;;;2.57;;
2396;SDS011;1209;48.410;9.054;2022-11-24T08:58:27;5.83;;;2.23;;
2396;SDS011;1209;48.410;9.054;2022-11-24T09:00:53;2.53;;;1.57;;
2396;SDS011;1209;48.410;9.054;2022-11-24T09:03:18;2.47;;;1.80;;
2396;SDS011;1209;48.410;9.054;2022-11-24T09:05:46;2.10;;;1.83;;
2396;SDS011;1209;48.410;9.054;2022-11-24T09:08:11;4.72;;;1.50;;
2396;SDS011;1209;48.410;9.054;2022-11-24T09:10:36;3.00;;;1.37;;
2396;SDS011;1209;48.410;9.054;2022-11-24T09:13:02;1.57;;;1.13;;
2396;SDS011;1209;48.410;9.054;2022-11-24T09:15:27;2.37;;;1.33;;
2396;SDS011;1209;48.410;9.054;2022-11-24T09:17:52;2.67;;;1.00;;
2396;SDS011;1209;48.410;9.054;2022-11-24T09:20:18;2.53;;;1.13;;
2396;SDS011;1209;48.410;9.054;2022-11-24T09:22:43;5.50;;;1.47;;
2396;SDS011;1209;48.410;9.054;2022-11-24T09:25:08;1.63;;;1.53;;
2396;SDS011;1209;48.410;9.054;2022-11-24T09:27:34;0.73;;;0.73;;
2396;SDS011;1209;48.410;9.054;2022-11-24T09:30:00;1.63;;;1.53;;
2396;SDS011;1209;48.410;9.054;2022-11-24T09:32:27;1.07;;;0.90;;
2396;SDS011;1209;48.410;9.054;2022-11-24T09:34:54;1.50;;;1.40;;
2396;SDS011;1209;48.410;9.054;2022-11-24T09:37:19;1.10;;;1.10;;
2396;SDS011;1209;48.410;9.054;2022-11-24T09:39:45;0.67;;;0.67;;
2396;SDS011;1209;48.410;9.054;2022-11-24T09:42:14;0.83;;;0.83;;
2396;SDS011;1209;48.410;9.054;2022-11-24T09:50:22;2.00;;;1.23;;
2396;SDS011;1209;48.410;9.054;2022-11-24T09:55:49;3.37;;;1.30;;
2396;SDS011;1209;48.410;9.054;2022-11-24T10:01:00;1.27;;;1.23;;
2396;SDS011;1209;48.410;9.054;2022-11-24T10:03:51;11.53;;;1.30;;
2396;SDS011;1209;48.410;9.054;2022-11-24T10:06:21;1.73;;;0.80;;
2396;SDS011;1209;48.410;9.054;2022-11-24T10:11:35;1.60;;;1.45;;
2396;SDS011;1209;48.410;9.054;2022-11-24T10:17:08;1.47;;;1.37;;
2396;SDS011;1209;48.410;9.054;2022-11-24T10:23:06;2.13;;;1.20;;
2396;SDS011;1209;48.410;9.054;2022-11-24T10:25:33;2.20;;;1.50;;
2396;SDS011;1209;48.410;9.054;2022-11-24T10:29:07;1.07;;;1.03;;
2396;SDS011;1209;48.410;9.054;2022-11-24T10:31:23;1.73;;;1.63;;
2396;SDS011;1209;48.410;9.054;2022-11-24T10:39:22;1.37;;;1.27;;
2396;SDS011;1209;48.410;9.054;2022-11-24T10:42:03;1.47;;;1.20;;
2396;SDS011;1209;48.410;9.054;2022-11-24T10:44:35;1.47;;;1.37;;
2396;SDS011;1209;48.410;9.054;2022-11-24T10:47:00;1.50;;;1.40;;
2396;SDS011;1209;48.410;9.054;2022-11-24T10:49:28;1.23;;;1.10;;
2396;SDS011;1209;48.410;9.054;2022-11-24T10:54:52;7.03;;;1.27;;
2396;SDS011;1209;48.410;9.054;2022-11-24T10:57:30;0.77;;;0.77;;
2396;SDS011;1209;48.410;9.054;2022-11-24T11:02:49;2.00;;;1.07;;
2396;SDS011;1209;48.410;9.054;2022-11-24T11:05:40;3.00;;;1.40;;
2396;SDS011;1209;48.410;9.054;2022-11-24T11:10:40;1.07;;;1.07;;
2396;SDS011;1209;48.410;9.054;2022-11-24T11:15:52;1.47;;;1.37;;
2396;SDS011;1209;48.410;9.054;2022-11-24T11:18:18;7.83;;;1.70;;
2396;SDS011;1209;48.410;9.054;2022-11-24T11:20:48;3.63;;;1.77;;
2396;SDS011;1209;48.410;9.054;2022-11-24T11:23:19;1.60;;;1.47;;
2396;SDS011;1209;48.410;9.054;2022-11-24T11:25:47;1.70;;;1.60;;
2396;SDS011;1209;48.410;9.054;2022-11-24T11:30:47;1.20;;;1.10;;
2396;SDS011;1209;48.410;9.054;2022-11-24T11:33:25;2.47;;;1.10;;
2396;SDS011;1209;48.410;9.054;2022-11-24T11:35:52;7.83;;;1.60;;
2396;SDS011;1209;48.410;9.054;2022-11-24T11:38:19;4.00;;;2.07;;
2396;SDS011;1209;48.410;9.054;2022-11-24T11:40:44;1.00;;;1.00;;
2396;SDS011;1209;48.410;9.054;2022-11-24T11:45:52;2.70;;;1.43;;
2396;SDS011;1209;48.410;9.054;2022-11-24T11:48:26;3.13;;;1.20;;
2396;SDS011;1209;48.410;9.054;2022-11-24T11:56:54;1.70;;;1.23;;
2396;SDS011;1209;48.410;9.054;2022-11-24T11:59:50;5.60;;;1.17;;
2396;SDS011;1209;48.410;9.054;2022-11-24T12:11:21;2.60;;;1.20;;
2396;SDS011;1209;48.410;9.054;2022-11-24T12:17:03;4.13;;;1.23;;
2396;SDS011;1209;48.410;9.054;2022-11-24T12:25:17;1.10;;;1.10;;
2396;SDS011;1209;48.410;9.054;2022-11-24T12:27:53;3.63;;;1.23;;
2396;SDS011;1209;48.410;9.054;2022-11-24T12:30:42;3.83;;;1.37;;
2396;SDS011;1209;48.410;9.054;2022-11-24T12:36:35;1.60;;;1.20;;
2396;SDS011;1209;48.410;9.054;2022-11-24T12:42:07;1.07;;;1.07;;
2396;SDS011;1209;48.410;9.054;2022-11-24T12:47:53;2.40;;;1.23;;
2396;SDS011;1209;48.410;9.054;2022-11-24T12:50:39;2.90;;;1.33;;
2396;SDS011;1209;48.410;9.054;2022-11-24T12:53:11;2.37;;;1.10;;
2396;SDS011;1209;48.410;9.054;2022-11-24T12:55:48;2.20;;;1.00;;
2396;SDS011;1209;48.410;9.054;2022-11-24T13:08:51;3.70;;;1.20;;
2396;SDS011;1209;48.410;9.054;2022-11-24T13:16:31;1.60;;;0.90;;
2396;SDS011;1209;48.410;9.054;2022-11-24T13:18:57;2.53;;;1.03;;
2396;SDS011;1209;48.410;9.054;2022-11-24T13:26:28;2.10;;;1.40;;
2396;SDS011;1209;48.410;9.054;2022-11-24T13:29:04;5.12;;;1.20;;
2396;SDS011;1209;48.410;9.054;2022-11-24T13:31:30;2.50;;;1.20;;
2396;SDS011;1209;48.410;9.054;2022-11-24T13:33:56;2.97;;;1.30;;
2396;SDS011;1209;48.410;9.054;2022-11-24T13:49:49;4.35;;;2.28;;
2396;SDS011;1209;48.410;9.054;2022-11-24T13:55:03;1.40;;;1.00;;
2396;SDS011;1209;48.410;9.054;2022-11-24T13:57:37;9.43;;;2.40;;
2396;SDS011;1209;48.410;9.054;2022-11-24T14:00:26;4.97;;;1.50;;
2396;SDS011;1209;48.410;9.054;2022-11-24T14:03:02;9.77;;;1.73;;
2396;SDS011;1209;48.410;9.054;2022-11-24T14:05:39;2.20;;;1.33;;
2396;SDS011;1209;48.410;9.054;2022-11-24T14:08:31;3.13;;;1.40;;
2396;SDS011;1209;48.410;9.054;2022-11-24T14:11:00;6.33;;;1.30;;
2396;SDS011;1209;48.410;9.054;2022-11-24T14:13:28;2.17;;;1.97;;
2396;SDS011;1209;48.410;9.054;2022-11-24T14:15:59;5.07;;;1.40;;
2396;SDS011;1209;48.410;9.054;2022-11-24T14:18:27;5.70;;;1.03;;
2396;SDS011;1209;48.410;9.054;2022-11-24T14:20:59;1.50;;;1.30;;
2396;SDS011;1209;48.410;9.054;2022-11-24T14:23:40;4.30;;;1.10;;
2396;SDS011;1209;48.410;9.054;2022-11-24T14:26:13;3.60;;;1.80;;
2396;SDS011;1209;48.410;9.054;2022-11-24T14:28:44;3.17;;;1.40;;
2396;SDS011;1209;48.410;9.054;2022-11-24T14:31:17;1.70;;;1.20;;
2396;SDS011;1209;48.410;9.054;2022-11-24T14:33:48;1.37;;;1.27;;
2396;SDS011;1209;48.410;9.054;2022-11-24T14:36:14;5.97;;;1.40;;
2396;SDS011;1209;48.410;9.054;2022-11-24T14:38:40;4.37;;;2.57;;
2396;SDS011;1209;48.410;9.054;2022-11-24T14:41:13;8.00;;;2.10;;
2396;SDS011;1209;48.410;9.054;2022-11-24T14:43:44;2.63;;;1.43;;
2396;SDS011;1209;48.410;9.054;2022-11-24T14:46:10;3.20;;;1.50;;
2396;SDS011;1209;48.410;9.054;2022-11-24T14:48:49;3.83;;;1.37;;
2396;SDS011;1209;48.410;9.054;2022-11-24T14:51:18;6.20;;;1.63;;
2396;SDS011;1209;48.410;9.054;2022-11-24T14:54:12;2.63;;;1.40;;
2396;SDS011;1209;48.410;9.054;2022-11-24T14:56:43;4.30;;;1.20;;
2396;SDS011;1209;48.410;9.054;2022-11-24T14:59:31;2.00;;;1.23;;
2396;SDS011;1209;48.410;9.054;2022-11-24T15:01:58;2.30;;;1.20;;
2396;SDS011;1209;48.410;9.054;2022-11-24T15:07:00;4.37;;;1.30;;
2396;SDS011;1209;48.410;9.054;2022-11-24T15:12:20;1.93;;;1.73;;
2396;SDS011;1209;48.410;9.054;2022-11-24T15:14:48;1.37;;;1.17;;
2396;SDS011;1209;48.410;9.054;2022-11-24T15:17:19;3.73;;;1.73;;
2396;SDS011;1209;48.410;9.054;2022-11-24T15:20:32;4.60;;;1.93;;
2396;SDS011;1209;48.410;9.054;2022-11-24T15:22:41;4.83;;;2.40;;
2396;SDS011;1209;48.410;9.054;2022-11-24T15:25:28;3.20;;;2.27;;
2396;SDS011;1209;48.410;9.054;2022-11-24T15:27:57;4.00;;;1.93;;
2396;SDS011;1209;48.410;9.054;2022-11-24T15:30:23;3.00;;;1.73;;
2396;SDS011;1209;48.410;9.054;2022-11-24T15:35:18;5.90;;;2.53;;
2396;SDS011;1209;48.410;9.054;2022-11-24T15:37:44;4.73;;;3.50;;
2396;SDS011;1209;48.410;9.054;2022-11-24T15:40:09;6.93;;;4.27;;
2396;SDS011;1209;48.410;9.054;2022-11-24T15:42:35;13.57;;;7.37;;
2396;SDS011;1209;48.410;9.054;2022-11-24T15:45:00;13.63;;;6.87;;
2396;SDS011;1209;48.410;9.054;2022-11-24T15:47:26;17.40;;;8.50;;
2396;SDS011;1209;48.410;9.054;2022-11-24T15:49:51;12.70;;;7.70;;
2396;SDS011;1209;48.410;9.054;2022-11-24T15:52:16;6.17;;;4.93;;
2396;SDS011;1209;48.410;9.054;2022-11-24T15:54:44;12.20;;;7.40;;
2396;SDS011;1209;48.410;9.054;2022-11-24T15:57:11;15.10;;;7.63;;
2396;SDS011;1209;48.410;9.054;2022-11-24T15:59:36;13.37;;;7.90;;
2396;SDS011;1209;48.410;9.054;2022-11-24T16:02:02;6.30;;;4.40;;
2396;SDS011;1209;48.410;9.054;2022-11-24T16:04:28;7.77;;;5.13;;
2396;SDS011;1209;48.410;9.054;2022-11-24T16:06:53;14.67;;;7.10;;
2396;SDS011;1209;48.410;9.054;2022-11-24T16:09:19;17.37;;;9.10;;
2396;SDS011;1209;48.410;9.054;2022-11-24T16:11:44;18.20;;;8.67;;
2396;SDS011;1209;48.410;9.054;2022-11-24T16:14:09;11.80;;;8.80;;
2396;SDS011;1209;48.410;9.054;2022-11-24T16:16:34;17.67;;;10.27;;
2396;SDS011;1209;48.410;9.054;2022-11-24T16:19:00;27.07;;;11.80;;
2396;SDS011;1209;48.410;9.054;2022-11-24T16:21:25;23.70;;;11.77;;
2396;SDS011;1209;48.410;9.054;2022-11-24T16:23:50;16.07;;;9.97;;
2396;SDS011;1209;48.410;9.054;2022-11-24T16:26:16;16.43;;;9.70;;
2396;SDS011;1209;48.410;9.054;2022-11-24T16:28:41;13.17;;;8.17;;
2396;SDS011;1209;48.410;9.054;2022-11-24T16:31:06;16.50;;;9.53;;
2396;SDS011;1209;48.410;9.054;2022-11-24T16:33:32;15.30;;;10.00;;
2396;SDS011;1209;48.410;9.054;2022-11-24T16:35:57;16.53;;;8.73;;
2396;SDS011;1209;48.410;9.054;2022-11-24T16:38:23;18.30;;;9.03;;
2396;SDS011;1209;48.410;9.054;2022-11-24T16:40:49;13.93;;;8.60;;
2396;SDS011;1209;48.410;9.054;2022-11-24T16:43:15;9.70;;;7.30;;
2396;SDS011;1209;48.410;9.054;2022-11-24T16:45:41;12.93;;;8.13;;
2396;SDS011;1209;48.410;9.054;2022-11-24T16:48:06;12.70;;;5.80;;
2396;SDS011;1209;48.410;9.054;2022-11-24T16:50:31;7.33;;;5.10;;
2396;SDS011;1209;48.410;9.054;2022-11-24T16:52:57;10.87;;;6.37;;
2396;SDS011;1209;48.410;9.054;2022-11-24T16:55:22;15.93;;;6.33;;
2396;SDS011;1209;48.410;9.054;2022-11-24T16:57:47;8.73;;;5.93;;
2396;SDS011;1209;48.410;9.054;2022-11-24T17:00:13;9.17;;;6.73;;
2396;SDS011;1209;48.410;9.054;2022-11-24T17:02:39;12.40;;;7.20;;
2396;SDS011;1209;48.410;9.054;2022-11-24T17:05:04;9.13;;;7.00;;
2396;SDS011;1209;48.410;9.054;2022-11-24T17:07:30;13.37;;;7.57;;
2396;SDS011;1209;48.410;9.054;2022-11-24T17:09:55;12.63;;;7.30;;
2396;SDS011;1209;48.410;9.054;2022-11-24T17:12:20;12.70;;;6.70;;
2396;SDS011;1209;48.410;9.054;2022-11-24T17:14:46;9.83;;;6.50;;
2396;SDS011;1209;48.410;9.054;2022-11-24T17:17:11;10.53;;;6.90;;
2396;SDS011;1209;48.410;9.054;2022-11-24T17:19:36;8.80;;;7.00;;
2396;SDS011;1209;48.410;9.054;2022-11-24T17:22:02;17.63;;;8.73;;